sensor_id;sensor_type;location;lat;lon;timestamp;temperature;humidity
9107;DHT22;4589;48.690;8.952;2022-12-16T00:04:29;-2.50;99.90
9107;DHT22;4589;48.690;8.952;2022-12-16T00:14:12;-2.60;99.90
9107;DHT22;4589;48.690;8.952;2022-12-16T00:19:04;-2.70;99.90
9107;DHT22;4589;48.690;8.952;2022-12-16T00:21:29;-2.70;99.90
9107;DHT22;4589;48.690;8.952;2022-12-16T00:23:56;-2.70;99.90
9107;DHT22;4589;48.690;8.952;2022-12-16T00:26:22;-2.70;99.90
9107;DHT22;4589;48.690;8.952;2022-12-16T00:33:40;-2.70;99.90
9107;DHT22;4589;48.690;8.952;2022-12-16T00:36:06;-2.70;99.90
9107;DHT22;4589;48.690;8.952;2022-12-16T00:50:48;-2.80;99.90
9107;DHT22;4589;48.690;8.952;2022-12-16T00:53:13;-2.90;99.90
9107;DHT22;4589;48.690;8.952;2022-12-16T00:55:39;-3.00;99.90
9107;DHT22;4589;48.690;8.952;2022-12-16T01:05:23;-3.00;99.90
9107;DHT22;4589;48.690;8.952;2022-12-16T01:07:53;-3.10;99.90
9107;DHT22;4589;48.690;8.952;2022-12-16T01:10:19;-3.10;99.90
9107;DHT22;4589;48.690;8.952;2022-12-16T01:12:45;-3.10;99.90
9107;DHT22;4589;48.690;8.952;2022-12-16T01:17:38;-3.00;99.90
9107;DHT22;4589;48.690;8.952;2022-12-16T01:22:31;-3.00;99.90
9107;DHT22;4589;48.690;8.952;2022-12-16T01:24:58;-3.00;99.90
9107;DHT22;4589;48.690;8.952;2022-12-16T01:27:23;-3.00;99.90
9107;DHT22;4589;48.690;8.952;2022-12-16T01:32:15;-3.00;99.90
9107;DHT22;4589;48.690;8.952;2022-12-16T01:34:41;-3.20;99.90
9107;DHT22;4589;48.690;8.952;2022-12-16T01:37:11;-3.20;99.90
9107;DHT22;4589;48.690;8.952;2022-12-16T01:46:59;-3.10;99.90
9107;DHT22;4589;48.690;8.952;2022-12-16T01:49:30;-3.20;99.90
9107;DHT22;4589;48.690;8.952;2022-12-16T01:52:00;-3.20;99.90
9107;DHT22;4589;48.690;8.952;2022-12-16T01:54:32;-3.20;99.90
9107;DHT22;4589;48.690;8.952;2022-12-16T01:57:05;-3.20;99.90
9107;DHT22;4589;48.690;8.952;2022-12-16T01:59:35;-3.20;99.90
9107;DHT22;4589;48.690;8.952;2022-12-16T02:02:02;-3.20;99.90
9107;DHT22;4589;48.690;8.952;2022-12-16T02:06:55;-3.10;99.90
9107;DHT22;4589;48.690;8.952;2022-12-16T02:09:21;-3.10;99.90
9107;DHT22;4589;48.690;8.952;2022-12-16T02:12:00;-3.20;99.90
9107;DHT22;4589;48.690;8.952;2022-12-16T02:20:09;-3.20;99.90
9107;DHT22;4589;48.690;8.952;2022-12-16T02:23:08;-3.30;99.90
9107;DHT22;4589;48.690;8.952;2022-12-16T02:26:18;-3.30;99.90
9107;DHT22;4589;48.690;8.952;2022-12-16T02:31:49;-3.20;99.90
9107;DHT22;4589;48.690;8.952;2022-12-16T02:34:41;-3.20;99.90
9107;DHT22;4589;48.690;8.952;2022-12-16T02:37:30;-3.10;99.90
9107;DHT22;4589;48.690;8.952;2022-12-16T02:40:03;-3.20;99.90
9107;DHT22;4589;48.690;8.952;2022-12-16T02:42:40;-3.10;99.90
9107;DHT22;4589;48.690;8.952;2022-12-16T02:45:12;-3.20;99.90
9107;DHT22;4589;48.690;8.952;2022-12-16T02:47:39;-3.20;99.90
9107;DHT22;4589;48.690;8.952;2022-12-16T02:50:17;-3.20;99.90
9107;DHT22;4589;48.690;8.952;2022-12-16T03:03:43;-3.20;99.90
9107;DHT22;4589;48.690;8.952;2022-12-16T03:06:14;-3.30;99.90
9107;DHT22;4589;48.690;8.952;2022-12-16T03:08:45;-3.30;99.90
9107;DHT22;4589;48.690;8.952;2022-12-16T03:11:12;-3.30;99.90
9107;DHT22;4589;48.690;8.952;2022-12-16T03:13:42;-3.20;99.90
9107;DHT22;4589;48.690;8.952;2022-12-16T03:16:11;-3.30;99.90
9107;DHT22;4589;48.690;8.952;2022-12-16T03:18:42;-3.30;99.90
9107;DHT22;4589;48.690;8.952;2022-12-16T03:21:09;-3.20;99.90
9107;DHT22;4589;48.690;8.952;2022-12-16T03:23:50;-3.30;99.90
9107;DHT22;4589;48.690;8.952;2022-12-16T03:26:32;-3.20;99.90
9107;DHT22;4589;48.690;8.952;2022-12-16T03:29:02;-3.20;99.90
9107;DHT22;4589;48.690;8.952;2022-12-16T03:31:42;-3.20;99.90
9107;DHT22;4589;48.690;8.952;2022-12-16T03:36:46;-3.30;99.90
9107;DHT22;4589;48.690;8.952;2022-12-16T03:39:14;-3.30;99.90
9107;DHT22;4589;48.690;8.952;2022-12-16T03:41:43;-3.20;99.90
9107;DHT22;4589;48.690;8.952;2022-12-16T03:44:09;-3.20;99.90
9107;DHT22;4589;48.690;8.952;2022-12-16T03:49:01;-3.20;99.90
9107;DHT22;4589;48.690;8.952;2022-12-16T04:01:12;-3.20;99.90
9107;DHT22;4589;48.690;8.952;2022-12-16T04:03:37;-3.20;99.90
9107;DHT22;4589;48.690;8.952;2022-12-16T04:06:04;-3.20;99.90
9107;DHT22;4589;48.690;8.952;2022-12-16T04:08:30;-3.20;99.90
9107;DHT22;4589;48.690;8.952;2022-12-16T04:10:55;-3.20;99.90
9107;DHT22;4589;48.690;8.952;2022-12-16T04:16:26;-3.20;99.90
9107;DHT22;4589;48.690;8.952;2022-12-16T04:19:20;-3.20;99.90
9107;DHT22;4589;48.690;8.952;2022-12-16T04:22:14;-3.20;99.90
9107;DHT22;4589;48.690;8.952;2022-12-16T04:25:27;-3.20;99.90
9107;DHT22;4589;48.690;8.952;2022-12-16T04:27:48;-3.30;99.90
9107;DHT22;4589;48.690;8.952;2022-12-16T04:30:16;-3.20;99.90
9107;DHT22;4589;48.690;8.952;2022-12-16T04:33:03;-3.20;99.90
9107;DHT22;4589;48.690;8.952;2022-12-16T04:35:48;-3.30;99.90
9107;DHT22;4589;48.690;8.952;2022-12-16T04:38:32;-3.30;99.90
9107;DHT22;4589;48.690;8.952;2022-12-16T04:44:01;-3.20;99.90
9107;DHT22;4589;48.690;8.952;2022-12-16T04:46:45;-3.20;99.90
9107;DHT22;4589;48.690;8.952;2022-12-16T04:49:29;-3.30;99.90
9107;DHT22;4589;48.690;8.952;2022-12-16T04:52:14;-3.30;99.90
9107;DHT22;4589;48.690;8.952;2022-12-16T04:54:58;-3.30;99.90
9107;DHT22;4589;48.690;8.952;2022-12-16T04:57:53;-3.30;99.90
9107;DHT22;4589;48.690;8.952;2022-12-16T05:00:38;-3.30;99.90
9107;DHT22;4589;48.690;8.952;2022-12-16T05:03:22;-3.30;99.90
9107;DHT22;4589;48.690;8.952;2022-12-16T05:06:06;-3.20;99.90
9107;DHT22;4589;48.690;8.952;2022-12-16T05:08:51;-3.30;99.90
9107;DHT22;4589;48.690;8.952;2022-12-16T05:11:42;-3.30;99.90
9107;DHT22;4589;48.690;8.952;2022-12-16T05:14:27;-3.30;99.90
9107;DHT22;4589;48.690;8.952;2022-12-16T05:19:56;-3.30;99.90
9107;DHT22;4589;48.690;8.952;2022-12-16T05:22:41;-3.20;99.90
9107;DHT22;4589;48.690;8.952;2022-12-16T05:25:25;-3.20;99.90
9107;DHT22;4589;48.690;8.952;2022-12-16T05:28:09;-3.20;99.90
9107;DHT22;4589;48.690;8.952;2022-12-16T05:30:53;-3.20;99.90
9107;DHT22;4589;48.690;8.952;2022-12-16T05:33:37;-3.20;99.90
9107;DHT22;4589;48.690;8.952;2022-12-16T05:36:21;-3.20;99.90
9107;DHT22;4589;48.690;8.952;2022-12-16T05:39:05;-3.20;99.90
9107;DHT22;4589;48.690;8.952;2022-12-16T05:41:49;-3.30;99.90
9107;DHT22;4589;48.690;8.952;2022-12-16T05:47:18;-3.20;99.90
9107;DHT22;4589;48.690;8.952;2022-12-16T05:52:49;-3.30;99.90
9107;DHT22;4589;48.690;8.952;2022-12-16T05:55:33;-3.30;99.90
9107;DHT22;4589;48.690;8.952;2022-12-16T05:58:17;-3.30;99.90
9107;DHT22;4589;48.690;8.952;2022-12-16T06:01:01;-3.40;99.90
9107;DHT22;4589;48.690;8.952;2022-12-16T06:03:45;-3.40;99.90
9107;DHT22;4589;48.690;8.952;2022-12-16T06:06:29;-3.40;99.90
9107;DHT22;4589;48.690;8.952;2022-12-16T06:09:13;-3.30;99.90
9107;DHT22;4589;48.690;8.952;2022-12-16T06:11:57;-3.40;99.90
9107;DHT22;4589;48.690;8.952;2022-12-16T06:17:26;-3.40;99.90
9107;DHT22;4589;48.690;8.952;2022-12-16T06:20:10;-3.40;99.90
9107;DHT22;4589;48.690;8.952;2022-12-16T06:22:54;-3.40;99.90
9107;DHT22;4589;48.690;8.952;2022-12-16T06:25:39;-3.40;99.90
9107;DHT22;4589;48.690;8.952;2022-12-16T06:28:24;-3.40;99.90
9107;DHT22;4589;48.690;8.952;2022-12-16T06:31:08;-3.40;99.90
9107;DHT22;4589;48.690;8.952;2022-12-16T06:36:42;-3.40;99.90
9107;DHT22;4589;48.690;8.952;2022-12-16T06:39:26;-3.40;99.90
9107;DHT22;4589;48.690;8.952;2022-12-16T06:42:10;-3.40;99.90
9107;DHT22;4589;48.690;8.952;2022-12-16T06:47:41;-3.30;99.90
9107;DHT22;4589;48.690;8.952;2022-12-16T06:50:25;-3.30;99.90
9107;DHT22;4589;48.690;8.952;2022-12-16T06:55:53;-3.40;99.90
9107;DHT22;4589;48.690;8.952;2022-12-16T06:58:37;-3.40;99.90
9107;DHT22;4589;48.690;8.952;2022-12-16T07:04:14;-3.40;99.90
9107;DHT22;4589;48.690;8.952;2022-12-16T07:09:42;-3.30;99.90
9107;DHT22;4589;48.690;8.952;2022-12-16T07:12:27;-3.30;99.90
9107;DHT22;4589;48.690;8.952;2022-12-16T07:18:06;-3.30;99.90
9107;DHT22;4589;48.690;8.952;2022-12-16T07:23:35;-3.30;99.90
9107;DHT22;4589;48.690;8.952;2022-12-16T07:26:19;-3.20;99.90
9107;DHT22;4589;48.690;8.952;2022-12-16T07:29:03;-3.20;99.90
9107;DHT22;4589;48.690;8.952;2022-12-16T07:31:47;-3.20;99.90
9107;DHT22;4589;48.690;8.952;2022-12-16T07:34:31;-3.20;99.90
9107;DHT22;4589;48.690;8.952;2022-12-16T07:37:15;-3.20;99.90
9107;DHT22;4589;48.690;8.952;2022-12-16T07:42:47;-3.20;99.90
9107;DHT22;4589;48.690;8.952;2022-12-16T07:48:16;-3.20;99.90
9107;DHT22;4589;48.690;8.952;2022-12-16T07:51:00;-3.20;99.90
9107;DHT22;4589;48.690;8.952;2022-12-16T07:53:44;-3.10;99.90
9107;DHT22;4589;48.690;8.952;2022-12-16T08:01:57;-3.10;99.90
9107;DHT22;4589;48.690;8.952;2022-12-16T08:04:41;-3.00;99.90
9107;DHT22;4589;48.690;8.952;2022-12-16T08:07:25;-3.00;99.90
9107;DHT22;4589;48.690;8.952;2022-12-16T08:10:09;-3.00;99.90
9107;DHT22;4589;48.690;8.952;2022-12-16T08:13:04;-2.90;99.90
9107;DHT22;4589;48.690;8.952;2022-12-16T08:15:48;-2.80;99.90
9107;DHT22;4589;48.690;8.952;2022-12-16T08:18:36;-2.70;99.90
9107;DHT22;4589;48.690;8.952;2022-12-16T08:24:05;-2.70;99.90
9107;DHT22;4589;48.690;8.952;2022-12-16T08:26:49;-2.60;99.90
9107;DHT22;4589;48.690;8.952;2022-12-16T08:32:18;-2.60;99.90
9107;DHT22;4589;48.690;8.952;2022-12-16T08:35:03;-2.60;99.90
9107;DHT22;4589;48.690;8.952;2022-12-16T08:40:31;-2.70;99.90
9107;DHT22;4589;48.690;8.952;2022-12-16T08:43:15;-2.60;99.90
9107;DHT22;4589;48.690;8.952;2022-12-16T08:45:59;-2.50;99.90
9107;DHT22;4589;48.690;8.952;2022-12-16T08:51:29;-2.50;99.90
9107;DHT22;4589;48.690;8.952;2022-12-16T08:54:13;-2.50;99.90
9107;DHT22;4589;48.690;8.952;2022-12-16T08:56:57;-2.40;99.90
9107;DHT22;4589;48.690;8.952;2022-12-16T09:05:10;-2.20;99.90
9107;DHT22;4589;48.690;8.952;2022-12-16T09:08:02;-2.20;99.90
9107;DHT22;4589;48.690;8.952;2022-12-16T09:10:46;-2.10;99.90
9107;DHT22;4589;48.690;8.952;2022-12-16T09:13:30;-2.10;99.90
9107;DHT22;4589;48.690;8.952;2022-12-16T09:18:59;-2.00;99.90
9107;DHT22;4589;48.690;8.952;2022-12-16T09:21:43;-2.00;99.90
9107;DHT22;4589;48.690;8.952;2022-12-16T09:24:27;-1.90;99.90
9107;DHT22;4589;48.690;8.952;2022-12-16T09:27:11;-1.90;99.90
9107;DHT22;4589;48.690;8.952;2022-12-16T09:29:55;-1.90;99.90
9107;DHT22;4589;48.690;8.952;2022-12-16T09:32:43;-1.80;99.90
9107;DHT22;4589;48.690;8.952;2022-12-16T09:35:27;-1.80;99.90
9107;DHT22;4589;48.690;8.952;2022-12-16T09:40:56;-1.80;99.90
9107;DHT22;4589;48.690;8.952;2022-12-16T09:44:02;-1.70;99.90
9107;DHT22;4589;48.690;8.952;2022-12-16T09:46:54;-1.70;99.90
9107;DHT22;4589;48.690;8.952;2022-12-16T09:49:49;-1.60;99.90
9107;DHT22;4589;48.690;8.952;2022-12-16T09:52:41;-1.60;99.90
9107;DHT22;4589;48.690;8.952;2022-12-16T09:55:39;-1.60;99.90
9107;DHT22;4589;48.690;8.952;2022-12-16T09:58:26;-1.50;99.90
9107;DHT22;4589;48.690;8.952;2022-12-16T10:03:57;-1.40;99.90
9107;DHT22;4589;48.690;8.952;2022-12-16T10:06:47;-1.40;99.90
9107;DHT22;4589;48.690;8.952;2022-12-16T10:12:50;-1.30;99.90
9107;DHT22;4589;48.690;8.952;2022-12-16T10:24:44;-1.20;99.90
9107;DHT22;4589;48.690;8.952;2022-12-16T10:27:43;-1.20;99.90
9107;DHT22;4589;48.690;8.952;2022-12-16T10:30:28;-1.10;99.90
9107;DHT22;4589;48.690;8.952;2022-12-16T10:33:14;-1.10;99.90
9107;DHT22;4589;48.690;8.952;2022-12-16T10:35:59;-1.00;99.90
9107;DHT22;4589;48.690;8.952;2022-12-16T10:38:51;-1.10;99.90
9107;DHT22;4589;48.690;8.952;2022-12-16T10:41:42;-1.00;99.90
9107;DHT22;4589;48.690;8.952;2022-12-16T10:44:49;-0.90;99.90
9107;DHT22;4589;48.690;8.952;2022-12-16T10:47:35;-0.80;99.90
9107;DHT22;4589;48.690;8.952;2022-12-16T10:50:19;-0.80;99.90
9107;DHT22;4589;48.690;8.952;2022-12-16T10:53:14;-0.90;99.90
9107;DHT22;4589;48.690;8.952;2022-12-16T10:59:14;-1.00;99.90
9107;DHT22;4589;48.690;8.952;2022-12-16T11:02:04;-0.90;99.90
9107;DHT22;4589;48.690;8.952;2022-12-16T11:04:58;-1.00;99.90
9107;DHT22;4589;48.690;8.952;2022-12-16T11:13:33;-0.80;99.90
9107;DHT22;4589;48.690;8.952;2022-12-16T11:16:24;-0.70;99.90
9107;DHT22;4589;48.690;8.952;2022-12-16T11:19:21;-0.70;99.90
9107;DHT22;4589;48.690;8.952;2022-12-16T11:22:25;-0.60;99.90
9107;DHT22;4589;48.690;8.952;2022-12-16T11:25:18;-0.70;99.90
9107;DHT22;4589;48.690;8.952;2022-12-16T11:28:13;-0.70;99.90
9107;DHT22;4589;48.690;8.952;2022-12-16T11:31:01;-0.70;99.90
9107;DHT22;4589;48.690;8.952;2022-12-16T11:33:47;-0.60;99.90
9107;DHT22;4589;48.690;8.952;2022-12-16T11:36:32;-0.50;99.90
9107;DHT22;4589;48.690;8.952;2022-12-16T11:39:19;-0.50;99.90
9107;DHT22;4589;48.690;8.952;2022-12-16T11:42:05;-0.50;99.90
9107;DHT22;4589;48.690;8.952;2022-12-16T11:44:57;-0.40;99.90
9107;DHT22;4589;48.690;8.952;2022-12-16T11:48:01;-0.40;99.90
9107;DHT22;4589;48.690;8.952;2022-12-16T11:50:52;-0.30;99.90
9107;DHT22;4589;48.690;8.952;2022-12-16T11:53:51;-0.30;99.90
9107;DHT22;4589;48.690;8.952;2022-12-16T11:56:39;-0.20;99.90
9107;DHT22;4589;48.690;8.952;2022-12-16T11:59:46;-0.20;99.90
9107;DHT22;4589;48.690;8.952;2022-12-16T12:03:16;-0.10;99.90
9107;DHT22;4589;48.690;8.952;2022-12-16T12:08:58;-0.20;99.90
9107;DHT22;4589;48.690;8.952;2022-12-16T12:11:51;0.00;99.90
9107;DHT22;4589;48.690;8.952;2022-12-16T12:14:54;-0.10;99.90
9107;DHT22;4589;48.690;8.952;2022-12-16T12:17:57;-0.10;99.90
9107;DHT22;4589;48.690;8.952;2022-12-16T12:21:07;-0.10;99.90
9107;DHT22;4589;48.690;8.952;2022-12-16T12:24:21;-0.30;99.90
9107;DHT22;4589;48.690;8.952;2022-12-16T12:27:32;-0.30;99.90
9107;DHT22;4589;48.690;8.952;2022-12-16T12:30:19;-0.30;99.90
9107;DHT22;4589;48.690;8.952;2022-12-16T12:39:10;-0.30;99.90
9107;DHT22;4589;48.690;8.952;2022-12-16T12:47:55;-0.40;99.90
9107;DHT22;4589;48.690;8.952;2022-12-16T12:50:49;-0.40;99.90
9107;DHT22;4589;48.690;8.952;2022-12-16T12:56:42;-0.50;99.90
9107;DHT22;4589;48.690;8.952;2022-12-16T12:59:55;-0.40;99.90
9107;DHT22;4589;48.690;8.952;2022-12-16T13:03:01;-0.40;99.90
9107;DHT22;4589;48.690;8.952;2022-12-16T13:05:47;-0.50;99.90
9107;DHT22;4589;48.690;8.952;2022-12-16T13:28:21;-0.60;99.90
9107;DHT22;4589;48.690;8.952;2022-12-16T13:31:07;-0.60;99.90
9107;DHT22;4589;48.690;8.952;2022-12-16T13:33:52;-0.70;99.90
9107;DHT22;4589;48.690;8.952;2022-12-16T13:39:26;-0.80;99.90
9107;DHT22;4589;48.690;8.952;2022-12-16T13:42:35;-0.70;99.90
9107;DHT22;4589;48.690;8.952;2022-12-16T13:57:12;-1.00;99.90
9107;DHT22;4589;48.690;8.952;2022-12-16T14:05:30;-1.10;99.90
9107;DHT22;4589;48.690;8.952;2022-12-16T14:08:19;-1.00;99.90
9107;DHT22;4589;48.690;8.952;2022-12-16T14:14:02;-1.20;99.90
9107;DHT22;4589;48.690;8.952;2022-12-16T14:16:58;-1.20;99.90
9107;DHT22;4589;48.690;8.952;2022-12-16T14:20:48;-1.20;99.90
9107;DHT22;4589;48.690;8.952;2022-12-16T14:26:04;-1.30;99.90
9107;DHT22;4589;48.690;8.952;2022-12-16T14:31:43;-1.40;99.90
9107;DHT22;4589;48.690;8.952;2022-12-16T14:34:30;-1.60;99.90
9107;DHT22;4589;48.690;8.952;2022-12-16T14:37:43;-1.60;99.90
9107;DHT22;4589;48.690;8.952;2022-12-16T14:40:40;-1.50;99.90
9107;DHT22;4589;48.690;8.952;2022-12-16T14:43:42;-1.60;99.90
9107;DHT22;4589;48.690;8.952;2022-12-16T14:46:28;-1.60;99.90
9107;DHT22;4589;48.690;8.952;2022-12-16T14:49:28;-1.70;99.90
9107;DHT22;4589;48.690;8.952;2022-12-16T14:52:23;-1.70;99.90
9107;DHT22;4589;48.690;8.952;2022-12-16T14:58:09;-1.80;99.90
9107;DHT22;4589;48.690;8.952;2022-12-16T15:09:24;-2.00;99.90
9107;DHT22;4589;48.690;8.952;2022-12-16T15:12:10;-2.10;99.90
9107;DHT22;4589;48.690;8.952;2022-12-16T15:14:56;-2.10;99.90
9107;DHT22;4589;48.690;8.952;2022-12-16T15:20:27;-2.10;99.90
9107;DHT22;4589;48.690;8.952;2022-12-16T15:23:30;-2.30;99.90
9107;DHT22;4589;48.690;8.952;2022-12-16T15:26:23;-2.40;99.90
9107;DHT22;4589;48.690;8.952;2022-12-16T15:29:36;-2.60;99.90
9107;DHT22;4589;48.690;8.952;2022-12-16T15:43:44;-2.90;99.90
9107;DHT22;4589;48.690;8.952;2022-12-16T15:46:30;-3.10;99.90
9107;DHT22;4589;48.690;8.952;2022-12-16T15:55:38;-3.30;99.90
9107;DHT22;4589;48.690;8.952;2022-12-16T16:01:24;-3.40;99.90
9107;DHT22;4589;48.690;8.952;2022-12-16T16:04:27;-3.40;99.90
9107;DHT22;4589;48.690;8.952;2022-12-16T16:10:21;-3.40;99.90
9107;DHT22;4589;48.690;8.952;2022-12-16T16:24:05;-3.50;99.90
9107;DHT22;4589;48.690;8.952;2022-12-16T16:26:49;-3.40;99.90
9107;DHT22;4589;48.690;8.952;2022-12-16T16:29:34;-3.50;99.90
9107;DHT22;4589;48.690;8.952;2022-12-16T16:32:18;-3.50;99.90
9107;DHT22;4589;48.690;8.952;2022-12-16T16:35:02;-3.40;99.90
9107;DHT22;4589;48.690;8.952;2022-12-16T16:37:46;-3.50;99.90
9107;DHT22;4589;48.690;8.952;2022-12-16T16:40:33;-3.50;99.90
9107;DHT22;4589;48.690;8.952;2022-12-16T16:46:29;-3.50;99.90
9107;DHT22;4589;48.690;8.952;2022-12-16T16:49:10;-3.50;99.90
9107;DHT22;4589;48.690;8.952;2022-12-16T16:54:39;-3.40;99.90
9107;DHT22;4589;48.690;8.952;2022-12-16T16:57:24;-3.40;99.90
9107;DHT22;4589;48.690;8.952;2022-12-16T17:00:09;-3.40;99.90
9107;DHT22;4589;48.690;8.952;2022-12-16T17:02:53;-3.40;99.90
9107;DHT22;4589;48.690;8.952;2022-12-16T17:11:20;-3.50;99.90
9107;DHT22;4589;48.690;8.952;2022-12-16T17:14:04;-3.40;99.90
9107;DHT22;4589;48.690;8.952;2022-12-16T17:22:18;-3.40;99.90
9107;DHT22;4589;48.690;8.952;2022-12-16T17:27:46;-3.40;99.90
9107;DHT22;4589;48.690;8.952;2022-12-16T17:33:15;-3.40;99.90
9107;DHT22;4589;48.690;8.952;2022-12-16T17:38:44;-3.40;99.90
9107;DHT22;4589;48.690;8.952;2022-12-16T17:41:30;-3.40;99.90
9107;DHT22;4589;48.690;8.952;2022-12-16T17:46:59;-3.50;99.90
9107;DHT22;4589;48.690;8.952;2022-12-16T17:55:13;-3.50;99.90
9107;DHT22;4589;48.690;8.952;2022-12-16T18:00:42;-3.60;99.90
9107;DHT22;4589;48.690;8.952;2022-12-16T18:03:26;-3.50;99.90
9107;DHT22;4589;48.690;8.952;2022-12-16T18:08:55;-3.50;99.90
9107;DHT22;4589;48.690;8.952;2022-12-16T18:14:23;-3.50;99.90
9107;DHT22;4589;48.690;8.952;2022-12-16T18:17:07;-3.50;99.90
9107;DHT22;4589;48.690;8.952;2022-12-16T18:19:51;-3.50;99.90
9107;DHT22;4589;48.690;8.952;2022-12-16T18:22:35;-3.60;99.90
9107;DHT22;4589;48.690;8.952;2022-12-16T18:25:20;-3.60;99.90
9107;DHT22;4589;48.690;8.952;2022-12-16T18:30:48;-3.60;99.90
9107;DHT22;4589;48.690;8.952;2022-12-16T18:33:32;-3.60;99.90
9107;DHT22;4589;48.690;8.952;2022-12-16T18:36:16;-3.50;99.90
9107;DHT22;4589;48.690;8.952;2022-12-16T18:39:00;-3.50;99.90
9107;DHT22;4589;48.690;8.952;2022-12-16T18:41:46;-3.60;99.90
9107;DHT22;4589;48.690;8.952;2022-12-16T18:47:15;-3.60;99.90
9107;DHT22;4589;48.690;8.952;2022-12-16T18:52:44;-3.70;99.90
9107;DHT22;4589;48.690;8.952;2022-12-16T19:01:09;-3.60;99.90
9107;DHT22;4589;48.690;8.952;2022-12-16T19:03:55;-3.70;99.90
9107;DHT22;4589;48.690;8.952;2022-12-16T19:14:53;-3.80;99.90
9107;DHT22;4589;48.690;8.952;2022-12-16T19:17:37;-3.90;99.90
9107;DHT22;4589;48.690;8.952;2022-12-16T19:25:57;-3.90;99.90
9107;DHT22;4589;48.690;8.952;2022-12-16T19:31:27;-3.70;99.90
9107;DHT22;4589;48.690;8.952;2022-12-16T19:36:56;-3.80;99.90
9107;DHT22;4589;48.690;8.952;2022-12-16T19:45:09;-3.90;99.90
9107;DHT22;4589;48.690;8.952;2022-12-16T19:48:19;-4.00;99.90
9107;DHT22;4589;48.690;8.952;2022-12-16T19:51:04;-4.10;99.90
9107;DHT22;4589;48.690;8.952;2022-12-16T19:57:00;-4.10;99.90
9107;DHT22;4589;48.690;8.952;2022-12-16T20:05:14;-4.00;99.90
9107;DHT22;4589;48.690;8.952;2022-12-16T20:10:42;-4.00;99.90
9107;DHT22;4589;48.690;8.952;2022-12-16T20:13:26;-4.10;99.90
9107;DHT22;4589;48.690;8.952;2022-12-16T20:16:11;-4.00;99.90
9107;DHT22;4589;48.690;8.952;2022-12-16T20:18:55;-4.10;99.90
9107;DHT22;4589;48.690;8.952;2022-12-16T20:21:40;-4.10;99.90
9107;DHT22;4589;48.690;8.952;2022-12-16T20:27:09;-4.20;99.90
9107;DHT22;4589;48.690;8.952;2022-12-16T20:29:53;-4.10;99.90
9107;DHT22;4589;48.690;8.952;2022-12-16T20:32:37;-4.20;99.90
9107;DHT22;4589;48.690;8.952;2022-12-16T20:35:21;-4.20;99.90
9107;DHT22;4589;48.690;8.952;2022-12-16T20:40:57;-4.30;99.90
9107;DHT22;4589;48.690;8.952;2022-12-16T20:43:42;-4.30;99.90
9107;DHT22;4589;48.690;8.952;2022-12-16T20:46:27;-4.40;99.90
9107;DHT22;4589;48.690;8.952;2022-12-16T20:49:12;-4.40;99.90
9107;DHT22;4589;48.690;8.952;2022-12-16T20:51:57;-4.50;99.90
9107;DHT22;4589;48.690;8.952;2022-12-16T20:57:25;-4.50;99.90
9107;DHT22;4589;48.690;8.952;2022-12-16T21:00:10;-4.40;99.90
9107;DHT22;4589;48.690;8.952;2022-12-16T21:05:40;-4.50;99.90
9107;DHT22;4589;48.690;8.952;2022-12-16T21:11:09;-4.50;99.90
9107;DHT22;4589;48.690;8.952;2022-12-16T21:16:37;-4.50;99.90
9107;DHT22;4589;48.690;8.952;2022-12-16T21:22:06;-4.60;99.90
9107;DHT22;4589;48.690;8.952;2022-12-16T21:27:34;-4.70;99.90
9107;DHT22;4589;48.690;8.952;2022-12-16T21:30:19;-4.80;99.90
9107;DHT22;4589;48.690;8.952;2022-12-16T21:33:03;-4.80;99.90
9107;DHT22;4589;48.690;8.952;2022-12-16T21:35:51;-4.90;99.90
9107;DHT22;4589;48.690;8.952;2022-12-16T21:41:19;-5.00;99.90
9107;DHT22;4589;48.690;8.952;2022-12-16T21:46:48;-5.10;99.90
9107;DHT22;4589;48.690;8.952;2022-12-16T21:49:32;-5.10;99.90
9107;DHT22;4589;48.690;8.952;2022-12-16T21:52:16;-5.30;99.90
9107;DHT22;4589;48.690;8.952;2022-12-16T21:55:00;-5.40;99.90
9107;DHT22;4589;48.690;8.952;2022-12-16T22:00:28;-5.40;99.90
9107;DHT22;4589;48.690;8.952;2022-12-16T22:05:57;-5.30;99.90
9107;DHT22;4589;48.690;8.952;2022-12-16T22:14:11;-5.30;99.90
9107;DHT22;4589;48.690;8.952;2022-12-16T22:19:39;-5.10;99.90
9107;DHT22;4589;48.690;8.952;2022-12-16T22:22:23;-5.00;99.90
9107;DHT22;4589;48.690;8.952;2022-12-16T22:25:07;-4.80;99.90
9107;DHT22;4589;48.690;8.952;2022-12-16T22:27:51;-4.90;99.90
9107;DHT22;4589;48.690;8.952;2022-12-16T22:30:35;-4.80;99.90
9107;DHT22;4589;48.690;8.952;2022-12-16T22:33:19;-4.70;99.90
9107;DHT22;4589;48.690;8.952;2022-12-16T22:36:06;-4.70;99.90
9107;DHT22;4589;48.690;8.952;2022-12-16T22:38:50;-4.70;99.90
9107;DHT22;4589;48.690;8.952;2022-12-16T22:41:34;-4.90;99.90
9107;DHT22;4589;48.690;8.952;2022-12-16T22:44:19;-5.10;99.90
9107;DHT22;4589;48.690;8.952;2022-12-16T22:47:03;-5.20;99.90
9107;DHT22;4589;48.690;8.952;2022-12-16T22:49:47;-5.40;99.90
9107;DHT22;4589;48.690;8.952;2022-12-16T22:58:08;-5.70;99.90
9107;DHT22;4589;48.690;8.952;2022-12-16T23:00:52;-5.80;99.90
9107;DHT22;4589;48.690;8.952;2022-12-16T23:03:36;-6.00;99.90
9107;DHT22;4589;48.690;8.952;2022-12-16T23:06:20;-6.10;99.90
9107;DHT22;4589;48.690;8.952;2022-12-16T23:09:04;-6.20;99.90
9107;DHT22;4589;48.690;8.952;2022-12-16T23:11:48;-6.30;99.90
9107;DHT22;4589;48.690;8.952;2022-12-16T23:20:03;-6.80;99.90
9107;DHT22;4589;48.690;8.952;2022-12-16T23:28:16;-7.20;99.90
9107;DHT22;4589;48.690;8.952;2022-12-16T23:36:29;-7.50;99.90
9107;DHT22;4589;48.690;8.952;2022-12-16T23:39:13;-7.50;99.90
9107;DHT22;4589;48.690;8.952;2022-12-16T23:41:57;-7.70;99.90
9107;DHT22;4589;48.690;8.952;2022-12-16T23:44:46;-7.80;99.90
9107;DHT22;4589;48.690;8.952;2022-12-16T23:47:30;-7.60;99.90
9107;DHT22;4589;48.690;8.952;2022-12-16T23:50:14;-7.80;99.90
9107;DHT22;4589;48.690;8.952;2022-12-16T23:55:47;-7.90;99.90
